sensor_id;sensor_type;location;lat;lon;timestamp;temperature;humidity
40816;DHT22;26535;48.788;9.214;2023-05-16T05:03:44;12.70;99.90
40816;DHT22;26535;48.788;9.214;2023-05-16T05:06:10;12.80;99.90
40816;DHT22;26535;48.788;9.214;2023-05-16T05:08:36;12.90;99.90
40816;DHT22;26535;48.788;9.214;2023-05-16T05:11:01;12.80;99.90
40816;DHT22;26535;48.788;9.214;2023-05-16T05:13:27;12.90;99.90
40816;DHT22;26535;48.788;9.214;2023-05-16T05:15:53;12.90;99.90
40816;DHT22;26535;48.788;9.214;2023-05-16T05:18:18;12.90;99.90
40816;DHT22;26535;48.788;9.214;2023-05-16T05:20:44;12.90;99.90
40816;DHT22;26535;48.788;9.214;2023-05-16T05:23:10;12.90;99.90
40816;DHT22;26535;48.788;9.214;2023-05-16T05:25:37;12.90;99.90
40816;DHT22;26535;48.788;9.214;2023-05-16T05:28:02;12.80;99.90
40816;DHT22;26535;48.788;9.214;2023-05-16T05:30:28;12.80;99.90
40816;DHT22;26535;48.788;9.214;2023-05-16T05:32:54;12.90;99.90
40816;DHT22;26535;48.788;9.214;2023-05-16T05:35:20;12.90;99.90
40816;DHT22;26535;48.788;9.214;2023-05-16T05:37:45;12.80;99.90
40816;DHT22;26535;48.788;9.214;2023-05-16T05:40:11;12.80;99.90
40816;DHT22;26535;48.788;9.214;2023-05-16T05:42:37;12.80;99.90
40816;DHT22;26535;48.788;9.214;2023-05-16T05:45:03;12.80;99.90
40816;DHT22;26535;48.788;9.214;2023-05-16T05:47:29;12.80;99.90
40816;DHT22;26535;48.788;9.214;2023-05-16T05:49:55;12.80;99.90
40816;DHT22;26535;48.788;9.214;2023-05-16T05:52:21;12.90;99.90
40816;DHT22;26535;48.788;9.214;2023-05-16T05:54:47;12.90;99.90
40816;DHT22;26535;48.788;9.214;2023-05-16T05:57:13;12.90;99.90
40816;DHT22;26535;48.788;9.214;2023-05-16T05:59:38;12.90;99.90
40816;DHT22;26535;48.788;9.214;2023-05-16T06:02:05;12.90;99.90
40816;DHT22;26535;48.788;9.214;2023-05-16T06:04:30;12.90;99.90
40816;DHT22;26535;48.788;9.214;2023-05-16T06:06:56;12.90;99.90
40816;DHT22;26535;48.788;9.214;2023-05-16T06:09:22;12.90;99.90
40816;DHT22;26535;48.788;9.214;2023-05-16T06:11:49;12.90;99.90
40816;DHT22;26535;48.788;9.214;2023-05-16T06:14:15;12.90;99.90
40816;DHT22;26535;48.788;9.214;2023-05-16T06:16:40;13.00;99.90
40816;DHT22;26535;48.788;9.214;2023-05-16T06:19:07;13.20;99.90
40816;DHT22;26535;48.788;9.214;2023-05-16T06:21:32;13.30;99.90
40816;DHT22;26535;48.788;9.214;2023-05-16T06:23:58;13.40;99.90
40816;DHT22;26535;48.788;9.214;2023-05-16T06:26:24;13.50;99.90
40816;DHT22;26535;48.788;9.214;2023-05-16T06:28:50;13.40;99.90
40816;DHT22;26535;48.788;9.214;2023-05-16T06:31:16;13.40;99.90
40816;DHT22;26535;48.788;9.214;2023-05-16T06:33:41;13.40;99.90
40816;DHT22;26535;48.788;9.214;2023-05-16T06:36:07;13.40;99.90
40816;DHT22;26535;48.788;9.214;2023-05-16T06:38:33;13.40;99.90
40816;DHT22;26535;48.788;9.214;2023-05-16T06:40:58;13.30;99.90
40816;DHT22;26535;48.788;9.214;2023-05-16T06:43:24;13.30;99.90
40816;DHT22;26535;48.788;9.214;2023-05-16T06:45:50;13.30;99.90
40816;DHT22;26535;48.788;9.214;2023-05-16T06:48:17;13.40;99.90
40816;DHT22;26535;48.788;9.214;2023-05-16T06:50:49;13.40;99.90
40816;DHT22;26535;48.788;9.214;2023-05-16T06:53:18;13.40;99.90
40816;DHT22;26535;48.788;9.214;2023-05-16T06:55:44;13.40;99.90
40816;DHT22;26535;48.788;9.214;2023-05-16T06:58:09;13.40;99.90
40816;DHT22;26535;48.788;9.214;2023-05-16T07:00:35;13.40;99.90
40816;DHT22;26535;48.788;9.214;2023-05-16T07:03:01;13.30;99.90
40816;DHT22;26535;48.788;9.214;2023-05-16T07:05:28;13.30;99.90
40816;DHT22;26535;48.788;9.214;2023-05-16T07:07:54;13.30;99.90
40816;DHT22;26535;48.788;9.214;2023-05-16T07:10:20;13.30;99.90
40816;DHT22;26535;48.788;9.214;2023-05-16T07:12:46;13.30;99.90
40816;DHT22;26535;48.788;9.214;2023-05-16T07:15:12;13.30;99.90
40816;DHT22;26535;48.788;9.214;2023-05-16T07:17:37;13.30;99.90
40816;DHT22;26535;48.788;9.214;2023-05-16T07:20:04;13.40;99.90
40816;DHT22;26535;48.788;9.214;2023-05-16T07:22:31;13.40;99.90
40816;DHT22;26535;48.788;9.214;2023-05-16T07:24:56;13.30;99.90
40816;DHT22;26535;48.788;9.214;2023-05-16T07:27:25;13.40;99.90
40816;DHT22;26535;48.788;9.214;2023-05-16T07:29:51;13.40;99.90
40816;DHT22;26535;48.788;9.214;2023-05-16T07:32:17;13.40;99.90
40816;DHT22;26535;48.788;9.214;2023-05-16T07:34:43;13.40;99.90
40816;DHT22;26535;48.788;9.214;2023-05-16T07:37:08;13.40;99.90
40816;DHT22;26535;48.788;9.214;2023-05-16T07:39:38;13.30;99.90
40816;DHT22;26535;48.788;9.214;2023-05-16T07:42:03;13.40;99.90
40816;DHT22;26535;48.788;9.214;2023-05-16T07:44:29;13.60;99.90
40816;DHT22;26535;48.788;9.214;2023-05-16T07:46:55;13.70;99.90
40816;DHT22;26535;48.788;9.214;2023-05-16T07:49:21;13.90;99.90
40816;DHT22;26535;48.788;9.214;2023-05-16T07:51:46;14.00;99.90
40816;DHT22;26535;48.788;9.214;2023-05-16T07:54:12;14.00;99.90
40816;DHT22;26535;48.788;9.214;2023-05-16T07:56:38;14.10;99.90
40816;DHT22;26535;48.788;9.214;2023-05-16T07:59:04;14.20;99.90
40816;DHT22;26535;48.788;9.214;2023-05-16T08:01:30;14.30;99.90
40816;DHT22;26535;48.788;9.214;2023-05-16T08:03:56;14.50;99.90
40816;DHT22;26535;48.788;9.214;2023-05-16T08:06:21;14.70;99.90
40816;DHT22;26535;48.788;9.214;2023-05-16T08:08:47;14.60;99.90
40816;DHT22;26535;48.788;9.214;2023-05-16T08:11:13;14.60;99.90
40816;DHT22;26535;48.788;9.214;2023-05-16T08:13:39;14.60;99.90
40816;DHT22;26535;48.788;9.214;2023-05-16T08:16:05;14.50;99.90
40816;DHT22;26535;48.788;9.214;2023-05-16T08:18:31;14.50;99.90
40816;DHT22;26535;48.788;9.214;2023-05-16T08:20:56;14.50;99.90
40816;DHT22;26535;48.788;9.214;2023-05-16T08:23:22;14.40;99.90
40816;DHT22;26535;48.788;9.214;2023-05-16T08:25:48;14.40;99.90
40816;DHT22;26535;48.788;9.214;2023-05-16T08:28:13;14.40;99.90
40816;DHT22;26535;48.788;9.214;2023-05-16T08:30:39;14.50;99.90
40816;DHT22;26535;48.788;9.214;2023-05-16T08:33:05;14.40;99.90
40816;DHT22;26535;48.788;9.214;2023-05-16T08:35:31;14.20;99.90
40816;DHT22;26535;48.788;9.214;2023-05-16T08:37:57;14.00;99.90
40816;DHT22;26535;48.788;9.214;2023-05-16T08:40:27;14.00;99.90
40816;DHT22;26535;48.788;9.214;2023-05-16T08:42:53;13.90;99.90
40816;DHT22;26535;48.788;9.214;2023-05-16T08:45:19;13.90;99.90
40816;DHT22;26535;48.788;9.214;2023-05-16T08:47:46;13.90;99.90
40816;DHT22;26535;48.788;9.214;2023-05-16T08:50:14;13.80;99.90
40816;DHT22;26535;48.788;9.214;2023-05-16T08:52:41;13.80;99.90
40816;DHT22;26535;48.788;9.214;2023-05-16T08:55:08;13.90;99.90
40816;DHT22;26535;48.788;9.214;2023-05-16T08:57:36;14.00;99.90
40816;DHT22;26535;48.788;9.214;2023-05-16T09:00:02;14.00;99.90
40816;DHT22;26535;48.788;9.214;2023-05-16T09:02:40;13.90;99.90
40816;DHT22;26535;48.788;9.214;2023-05-16T09:05:08;13.80;99.90
40816;DHT22;26535;48.788;9.214;2023-05-16T09:07:35;13.60;99.90
40816;DHT22;26535;48.788;9.214;2023-05-16T09:10:01;13.60;99.90
40816;DHT22;26535;48.788;9.214;2023-05-16T09:12:27;13.50;99.90
40816;DHT22;26535;48.788;9.214;2023-05-16T09:14:53;13.40;99.90
40816;DHT22;26535;48.788;9.214;2023-05-16T09:17:20;13.50;99.90
40816;DHT22;26535;48.788;9.214;2023-05-16T09:19:46;13.50;99.90
40816;DHT22;26535;48.788;9.214;2023-05-16T09:22:15;13.60;99.90
40816;DHT22;26535;48.788;9.214;2023-05-16T09:24:42;13.70;99.90
40816;DHT22;26535;48.788;9.214;2023-05-16T09:27:13;13.80;99.90
40816;DHT22;26535;48.788;9.214;2023-05-16T09:29:43;13.80;99.90
40816;DHT22;26535;48.788;9.214;2023-05-16T09:32:14;13.80;99.90
40816;DHT22;26535;48.788;9.214;2023-05-16T09:34:44;13.80;99.90
40816;DHT22;26535;48.788;9.214;2023-05-16T09:37:12;13.80;99.90
40816;DHT22;26535;48.788;9.214;2023-05-16T09:39:45;13.80;99.90
40816;DHT22;26535;48.788;9.214;2023-05-16T09:42:12;13.90;99.90
40816;DHT22;26535;48.788;9.214;2023-05-16T09:44:39;13.90;99.90
40816;DHT22;26535;48.788;9.214;2023-05-16T09:47:05;14.10;99.90
40816;DHT22;26535;48.788;9.214;2023-05-16T09:49:31;14.50;99.90
40816;DHT22;26535;48.788;9.214;2023-05-16T09:52:00;15.10;99.90
40816;DHT22;26535;48.788;9.214;2023-05-16T09:54:31;15.80;99.90
40816;DHT22;26535;48.788;9.214;2023-05-16T09:56:57;16.50;99.90
40816;DHT22;26535;48.788;9.214;2023-05-16T09:59:23;17.00;99.90
40816;DHT22;26535;48.788;9.214;2023-05-16T10:01:49;17.00;99.90
40816;DHT22;26535;48.788;9.214;2023-05-16T10:04:17;16.80;99.90
40816;DHT22;26535;48.788;9.214;2023-05-16T10:06:44;16.50;99.90
40816;DHT22;26535;48.788;9.214;2023-05-16T10:09:11;16.20;99.90
40816;DHT22;26535;48.788;9.214;2023-05-16T10:11:41;15.80;99.90
40816;DHT22;26535;48.788;9.214;2023-05-16T10:14:11;15.70;99.90
40816;DHT22;26535;48.788;9.214;2023-05-16T10:16:42;15.50;99.90
40816;DHT22;26535;48.788;9.214;2023-05-16T10:19:08;15.40;99.90
40816;DHT22;26535;48.788;9.214;2023-05-16T10:21:34;15.60;99.90
40816;DHT22;26535;48.788;9.214;2023-05-16T10:24:03;15.80;99.90
40816;DHT22;26535;48.788;9.214;2023-05-16T10:26:31;16.00;99.90
40816;DHT22;26535;48.788;9.214;2023-05-16T10:28:57;16.20;99.90
40816;DHT22;26535;48.788;9.214;2023-05-16T10:31:23;16.50;99.90
40816;DHT22;26535;48.788;9.214;2023-05-16T10:33:50;16.70;99.90
40816;DHT22;26535;48.788;9.214;2023-05-16T10:36:16;17.00;99.90
40816;DHT22;26535;48.788;9.214;2023-05-16T10:38:44;17.30;99.90
40816;DHT22;26535;48.788;9.214;2023-05-16T10:41:11;17.60;99.90
40816;DHT22;26535;48.788;9.214;2023-05-16T10:43:37;17.60;99.90
40816;DHT22;26535;48.788;9.214;2023-05-16T10:46:05;17.60;99.90
40816;DHT22;26535;48.788;9.214;2023-05-16T10:48:36;17.30;99.90
40816;DHT22;26535;48.788;9.214;2023-05-16T10:51:49;16.90;99.90
40816;DHT22;26535;48.788;9.214;2023-05-16T10:53:52;16.40;99.90
40816;DHT22;26535;48.788;9.214;2023-05-16T10:56:25;16.00;99.90
40816;DHT22;26535;48.788;9.214;2023-05-16T10:58:53;15.70;99.90
40816;DHT22;26535;48.788;9.214;2023-05-16T11:01:22;15.60;99.90
40816;DHT22;26535;48.788;9.214;2023-05-16T11:06:51;15.20;99.90
40816;DHT22;26535;48.788;9.214;2023-05-16T11:09:19;15.00;99.90
40816;DHT22;26535;48.788;9.214;2023-05-16T11:11:58;14.70;99.90
40816;DHT22;26535;48.788;9.214;2023-05-16T11:19:43;14.30;99.90
40816;DHT22;26535;48.788;9.214;2023-05-16T11:24:50;14.00;99.90
40816;DHT22;26535;48.788;9.214;2023-05-16T11:27:24;13.90;99.90
40816;DHT22;26535;48.788;9.214;2023-05-16T11:29:51;13.80;99.90
40816;DHT22;26535;48.788;9.214;2023-05-16T11:32:21;13.80;99.90
40816;DHT22;26535;48.788;9.214;2023-05-16T11:34:48;13.60;99.90
40816;DHT22;26535;48.788;9.214;2023-05-16T11:37:15;13.50;99.90
40816;DHT22;26535;48.788;9.214;2023-05-16T11:39:41;13.30;99.90
40816;DHT22;26535;48.788;9.214;2023-05-16T11:42:07;13.30;99.90
40816;DHT22;26535;48.788;9.214;2023-05-16T11:44:34;13.20;99.90
40816;DHT22;26535;48.788;9.214;2023-05-16T11:47:00;13.10;99.90
40816;DHT22;26535;48.788;9.214;2023-05-16T11:49:27;13.00;99.90
40816;DHT22;26535;48.788;9.214;2023-05-16T11:51:53;13.10;99.90
40816;DHT22;26535;48.788;9.214;2023-05-16T11:54:19;13.00;99.90
40816;DHT22;26535;48.788;9.214;2023-05-16T11:56:46;13.00;99.90
40816;DHT22;26535;48.788;9.214;2023-05-16T11:59:12;13.10;99.90
40816;DHT22;26535;48.788;9.214;2023-05-16T12:01:38;13.20;99.90
40816;DHT22;26535;48.788;9.214;2023-05-16T12:04:08;13.30;99.90
40816;DHT22;26535;48.788;9.214;2023-05-16T12:06:34;13.20;99.90
40816;DHT22;26535;48.788;9.214;2023-05-16T12:09:00;13.30;99.90
40816;DHT22;26535;48.788;9.214;2023-05-16T12:11:41;13.30;99.90
40816;DHT22;26535;48.788;9.214;2023-05-16T12:14:08;13.30;99.90
40816;DHT22;26535;48.788;9.214;2023-05-16T12:16:35;13.30;99.90
40816;DHT22;26535;48.788;9.214;2023-05-16T12:19:05;13.30;99.90
40816;DHT22;26535;48.788;9.214;2023-05-16T12:21:32;13.30;99.90
40816;DHT22;26535;48.788;9.214;2023-05-16T12:23:58;13.20;99.90
40816;DHT22;26535;48.788;9.214;2023-05-16T12:26:29;13.20;99.90
40816;DHT22;26535;48.788;9.214;2023-05-16T12:29:02;13.30;99.90
40816;DHT22;26535;48.788;9.214;2023-05-16T12:31:31;13.40;99.90
40816;DHT22;26535;48.788;9.214;2023-05-16T12:34:00;13.50;99.90
40816;DHT22;26535;48.788;9.214;2023-05-16T12:36:30;13.70;99.90
40816;DHT22;26535;48.788;9.214;2023-05-16T12:39:00;13.70;99.90
40816;DHT22;26535;48.788;9.214;2023-05-16T12:41:27;13.70;99.90
40816;DHT22;26535;48.788;9.214;2023-05-16T12:44:05;13.70;99.90
40816;DHT22;26535;48.788;9.214;2023-05-16T12:46:31;13.80;99.90
40816;DHT22;26535;48.788;9.214;2023-05-16T12:49:01;13.80;99.90
40816;DHT22;26535;48.788;9.214;2023-05-16T12:51:29;13.80;99.90
40816;DHT22;26535;48.788;9.214;2023-05-16T12:53:56;13.70;99.90
40816;DHT22;26535;48.788;9.214;2023-05-16T12:56:40;13.70;99.90
40816;DHT22;26535;48.788;9.214;2023-05-16T12:59:06;13.80;99.90
40816;DHT22;26535;48.788;9.214;2023-05-16T13:01:34;13.90;99.90
40816;DHT22;26535;48.788;9.214;2023-05-16T13:04:00;13.90;99.90
40816;DHT22;26535;48.788;9.214;2023-05-16T13:06:26;13.90;99.90
40816;DHT22;26535;48.788;9.214;2023-05-16T13:08:53;13.90;99.90
40816;DHT22;26535;48.788;9.214;2023-05-16T13:11:18;13.80;99.90
40816;DHT22;26535;48.788;9.214;2023-05-16T13:13:45;13.70;99.90
40816;DHT22;26535;48.788;9.214;2023-05-16T13:16:11;13.60;99.90
40816;DHT22;26535;48.788;9.214;2023-05-16T13:18:36;13.50;99.90
40816;DHT22;26535;48.788;9.214;2023-05-16T13:21:02;13.50;99.90
40816;DHT22;26535;48.788;9.214;2023-05-16T13:23:29;13.40;99.90
40816;DHT22;26535;48.788;9.214;2023-05-16T13:25:55;13.30;99.90
40816;DHT22;26535;48.788;9.214;2023-05-16T13:28:21;13.30;99.90
40816;DHT22;26535;48.788;9.214;2023-05-16T13:30:47;13.30;99.90
40816;DHT22;26535;48.788;9.214;2023-05-16T13:33:12;13.20;99.90
40816;DHT22;26535;48.788;9.214;2023-05-16T13:35:38;13.20;99.90
40816;DHT22;26535;48.788;9.214;2023-05-16T13:38:04;13.20;99.90
40816;DHT22;26535;48.788;9.214;2023-05-16T13:40:30;13.20;99.90
40816;DHT22;26535;48.788;9.214;2023-05-16T13:42:55;13.30;99.90
40816;DHT22;26535;48.788;9.214;2023-05-16T13:45:22;13.40;99.90
40816;DHT22;26535;48.788;9.214;2023-05-16T13:47:47;13.40;99.90
40816;DHT22;26535;48.788;9.214;2023-05-16T13:50:13;13.50;99.90
40816;DHT22;26535;48.788;9.214;2023-05-16T13:52:39;13.50;99.90
40816;DHT22;26535;48.788;9.214;2023-05-16T13:55:05;13.60;99.90
40816;DHT22;26535;48.788;9.214;2023-05-16T13:57:32;13.60;99.90
40816;DHT22;26535;48.788;9.214;2023-05-16T13:59:58;13.50;99.90
40816;DHT22;26535;48.788;9.214;2023-05-16T14:02:24;13.50;99.90
40816;DHT22;26535;48.788;9.214;2023-05-16T14:04:51;13.40;99.90
40816;DHT22;26535;48.788;9.214;2023-05-16T14:07:17;13.40;99.90
40816;DHT22;26535;48.788;9.214;2023-05-16T14:09:43;13.40;99.90
40816;DHT22;26535;48.788;9.214;2023-05-16T14:12:10;13.30;99.90
40816;DHT22;26535;48.788;9.214;2023-05-16T14:14:36;13.30;99.90
40816;DHT22;26535;48.788;9.214;2023-05-16T14:17:02;13.30;99.90
40816;DHT22;26535;48.788;9.214;2023-05-16T14:19:29;13.30;99.90
40816;DHT22;26535;48.788;9.214;2023-05-16T14:21:55;13.40;99.90
40816;DHT22;26535;48.788;9.214;2023-05-16T14:24:21;13.50;99.90
40816;DHT22;26535;48.788;9.214;2023-05-16T14:26:47;13.50;99.90
40816;DHT22;26535;48.788;9.214;2023-05-16T14:29:12;13.50;99.90
40816;DHT22;26535;48.788;9.214;2023-05-16T14:31:39;13.60;99.90
40816;DHT22;26535;48.788;9.214;2023-05-16T14:34:05;13.60;99.90
40816;DHT22;26535;48.788;9.214;2023-05-16T14:36:31;13.50;99.90
40816;DHT22;26535;48.788;9.214;2023-05-16T14:38:57;13.50;99.90
40816;DHT22;26535;48.788;9.214;2023-05-16T14:41:23;13.50;99.90
40816;DHT22;26535;48.788;9.214;2023-05-16T14:43:49;13.50;99.90
40816;DHT22;26535;48.788;9.214;2023-05-16T14:46:15;13.50;99.90
40816;DHT22;26535;48.788;9.214;2023-05-16T14:48:41;13.60;99.90
40816;DHT22;26535;48.788;9.214;2023-05-16T14:51:07;13.70;99.90
40816;DHT22;26535;48.788;9.214;2023-05-16T14:53:33;13.90;99.90
40816;DHT22;26535;48.788;9.214;2023-05-16T14:55:59;14.00;99.90
40816;DHT22;26535;48.788;9.214;2023-05-16T14:58:27;14.10;99.90
40816;DHT22;26535;48.788;9.214;2023-05-16T15:00:52;14.20;99.90
40816;DHT22;26535;48.788;9.214;2023-05-16T15:03:18;14.20;99.90
40816;DHT22;26535;48.788;9.214;2023-05-16T15:05:44;14.30;99.90
40816;DHT22;26535;48.788;9.214;2023-05-16T15:08:10;14.30;99.90
40816;DHT22;26535;48.788;9.214;2023-05-16T15:10:36;14.30;99.90
40816;DHT22;26535;48.788;9.214;2023-05-16T15:13:01;14.40;99.90
40816;DHT22;26535;48.788;9.214;2023-05-16T15:15:27;14.50;99.90
40816;DHT22;26535;48.788;9.214;2023-05-16T15:17:53;14.70;99.90
40816;DHT22;26535;48.788;9.214;2023-05-16T15:20:19;14.70;99.90
40816;DHT22;26535;48.788;9.214;2023-05-16T15:22:46;14.80;99.90
40816;DHT22;26535;48.788;9.214;2023-05-16T15:25:12;14.80;99.90
40816;DHT22;26535;48.788;9.214;2023-05-16T15:27:38;14.90;99.60
40816;DHT22;26535;48.788;9.214;2023-05-16T15:30:04;14.80;99.70
40816;DHT22;26535;48.788;9.214;2023-05-16T15:32:30;14.80;99.40
40816;DHT22;26535;48.788;9.214;2023-05-16T15:34:56;14.70;99.40
40816;DHT22;26535;48.788;9.214;2023-05-16T15:37:21;14.70;99.50
40816;DHT22;26535;48.788;9.214;2023-05-16T15:39:47;14.80;99.70
40816;DHT22;26535;48.788;9.214;2023-05-16T15:42:13;15.00;99.40
40816;DHT22;26535;48.788;9.214;2023-05-16T15:44:39;15.30;98.80
40816;DHT22;26535;48.788;9.214;2023-05-16T15:47:05;15.60;98.30
40816;DHT22;26535;48.788;9.214;2023-05-16T15:49:31;15.90;97.60
40816;DHT22;26535;48.788;9.214;2023-05-16T15:51:57;16.20;97.00
40816;DHT22;26535;48.788;9.214;2023-05-16T15:54:23;16.30;97.00
40816;DHT22;26535;48.788;9.214;2023-05-16T15:56:49;16.10;96.70
40816;DHT22;26535;48.788;9.214;2023-05-16T15:59:14;15.80;97.00
40816;DHT22;26535;48.788;9.214;2023-05-16T16:01:41;15.50;97.50
40816;DHT22;26535;48.788;9.214;2023-05-16T16:04:07;15.20;97.60
40816;DHT22;26535;48.788;9.214;2023-05-16T16:06:33;14.90;98.10
40816;DHT22;26535;48.788;9.214;2023-05-16T16:08:58;14.60;98.50
40816;DHT22;26535;48.788;9.214;2023-05-16T16:11:26;14.50;99.10
40816;DHT22;26535;48.788;9.214;2023-05-16T16:13:51;14.30;99.10
40816;DHT22;26535;48.788;9.214;2023-05-16T16:16:17;14.30;98.80
40816;DHT22;26535;48.788;9.214;2023-05-16T16:18:43;14.10;98.70
40816;DHT22;26535;48.788;9.214;2023-05-16T16:21:10;14.10;98.60
40816;DHT22;26535;48.788;9.214;2023-05-16T16:23:36;14.10;98.30
40816;DHT22;26535;48.788;9.214;2023-05-16T16:26:03;14.00;98.40
40816;DHT22;26535;48.788;9.214;2023-05-16T16:28:30;13.90;98.20
40816;DHT22;26535;48.788;9.214;2023-05-16T16:30:56;13.80;98.20
40816;DHT22;26535;48.788;9.214;2023-05-16T16:33:21;13.80;98.50
40816;DHT22;26535;48.788;9.214;2023-05-16T16:35:47;13.90;98.10
40816;DHT22;26535;48.788;9.214;2023-05-16T16:38:13;14.00;97.80
40816;DHT22;26535;48.788;9.214;2023-05-16T16:40:38;14.10;97.60
40816;DHT22;26535;48.788;9.214;2023-05-16T16:43:05;14.10;97.30
40816;DHT22;26535;48.788;9.214;2023-05-16T16:45:31;14.10;97.20
40816;DHT22;26535;48.788;9.214;2023-05-16T16:47:57;14.30;97.00
40816;DHT22;26535;48.788;9.214;2023-05-16T16:50:23;14.30;96.50
40816;DHT22;26535;48.788;9.214;2023-05-16T16:52:49;14.30;96.70
40816;DHT22;26535;48.788;9.214;2023-05-16T16:55:15;14.40;96.90
40816;DHT22;26535;48.788;9.214;2023-05-16T16:57:41;14.60;96.60
40816;DHT22;26535;48.788;9.214;2023-05-16T17:00:07;14.60;96.10
40816;DHT22;26535;48.788;9.214;2023-05-16T17:02:34;14.60;95.90
40816;DHT22;26535;48.788;9.214;2023-05-16T17:04:59;14.60;95.80
40816;DHT22;26535;48.788;9.214;2023-05-16T17:07:25;14.50;95.50
40816;DHT22;26535;48.788;9.214;2023-05-16T17:09:51;14.40;95.20
40816;DHT22;26535;48.788;9.214;2023-05-16T17:12:19;14.40;95.50
40816;DHT22;26535;48.788;9.214;2023-05-16T17:14:48;14.30;95.50
40816;DHT22;26535;48.788;9.214;2023-05-16T17:17:15;14.20;95.50
40816;DHT22;26535;48.788;9.214;2023-05-16T17:19:41;14.20;95.50
40816;DHT22;26535;48.788;9.214;2023-05-16T17:22:07;14.10;95.40
40816;DHT22;26535;48.788;9.214;2023-05-16T17:24:33;14.10;95.70
40816;DHT22;26535;48.788;9.214;2023-05-16T17:26:59;14.20;95.50
40816;DHT22;26535;48.788;9.214;2023-05-16T17:29:26;14.20;95.10
40816;DHT22;26535;48.788;9.214;2023-05-16T17:31:52;14.10;94.70
40816;DHT22;26535;48.788;9.214;2023-05-16T17:34:17;14.20;94.90
40816;DHT22;26535;48.788;9.214;2023-05-16T17:36:43;14.20;95.10
40816;DHT22;26535;48.788;9.214;2023-05-16T17:39:10;14.20;94.70
40816;DHT22;26535;48.788;9.214;2023-05-16T17:41:36;14.30;94.80
40816;DHT22;26535;48.788;9.214;2023-05-16T17:44:02;14.40;94.40
40816;DHT22;26535;48.788;9.214;2023-05-16T17:46:31;14.40;94.20
40816;DHT22;26535;48.788;9.214;2023-05-16T17:48:57;14.40;94.30
40816;DHT22;26535;48.788;9.214;2023-05-16T17:51:24;14.40;94.10
40816;DHT22;26535;48.788;9.214;2023-05-16T17:53:50;14.40;94.30
40816;DHT22;26535;48.788;9.214;2023-05-16T17:56:17;14.50;94.10
40816;DHT22;26535;48.788;9.214;2023-05-16T17:58:44;14.50;93.90
40816;DHT22;26535;48.788;9.214;2023-05-16T18:01:10;14.50;93.70
40816;DHT22;26535;48.788;9.214;2023-05-16T18:03:37;14.60;93.70
40816;DHT22;26535;48.788;9.214;2023-05-16T18:06:04;14.60;93.40
40816;DHT22;26535;48.788;9.214;2023-05-16T18:08:31;14.60;93.10
40816;DHT22;26535;48.788;9.214;2023-05-16T18:10:56;14.50;93.20
40816;DHT22;26535;48.788;9.214;2023-05-16T18:13:22;14.40;93.10
40816;DHT22;26535;48.788;9.214;2023-05-16T18:15:48;14.30;93.10
40816;DHT22;26535;48.788;9.214;2023-05-16T18:18:15;14.20;93.50
40816;DHT22;26535;48.788;9.214;2023-05-16T18:20:41;14.10;93.80
40816;DHT22;26535;48.788;9.214;2023-05-16T18:23:07;14.10;93.90
40816;DHT22;26535;48.788;9.214;2023-05-16T18:25:33;13.90;93.60
40816;DHT22;26535;48.788;9.214;2023-05-16T18:27:59;13.90;93.90
40816;DHT22;26535;48.788;9.214;2023-05-16T18:30:25;13.80;93.20
40816;DHT22;26535;48.788;9.214;2023-05-16T18:32:54;13.90;93.40
40816;DHT22;26535;48.788;9.214;2023-05-16T18:35:19;13.80;93.00
40816;DHT22;26535;48.788;9.214;2023-05-16T18:37:45;13.80;93.00
40816;DHT22;26535;48.788;9.214;2023-05-16T18:40:11;13.70;92.70
40816;DHT22;26535;48.788;9.214;2023-05-16T18:42:40;13.70;92.80
40816;DHT22;26535;48.788;9.214;2023-05-16T18:45:06;13.60;92.70
40816;DHT22;26535;48.788;9.214;2023-05-16T18:47:32;13.50;92.30
40816;DHT22;26535;48.788;9.214;2023-05-16T18:49:58;13.40;92.60
40816;DHT22;26535;48.788;9.214;2023-05-16T18:52:24;13.30;92.30
40816;DHT22;26535;48.788;9.214;2023-05-16T18:54:49;13.20;92.20
40816;DHT22;26535;48.788;9.214;2023-05-16T18:57:15;13.10;92.00
40816;DHT22;26535;48.788;9.214;2023-05-16T18:59:41;13.00;92.00
40816;DHT22;26535;48.788;9.214;2023-05-16T19:02:06;12.90;92.30
40816;DHT22;26535;48.788;9.214;2023-05-16T19:04:32;12.80;92.40
40816;DHT22;26535;48.788;9.214;2023-05-16T19:06:58;12.60;92.30
40816;DHT22;26535;48.788;9.214;2023-05-16T19:09:24;12.60;92.50
40816;DHT22;26535;48.788;9.214;2023-05-16T19:11:49;12.50;92.60
40816;DHT22;26535;48.788;9.214;2023-05-16T19:14:15;12.40;92.40
40816;DHT22;26535;48.788;9.214;2023-05-16T19:16:41;12.40;92.60
40816;DHT22;26535;48.788;9.214;2023-05-16T19:19:07;12.30;92.60
40816;DHT22;26535;48.788;9.214;2023-05-16T19:21:33;12.30;92.50
40816;DHT22;26535;48.788;9.214;2023-05-16T19:23:59;12.20;92.60
40816;DHT22;26535;48.788;9.214;2023-05-16T19:26:25;12.20;92.70
40816;DHT22;26535;48.788;9.214;2023-05-16T19:28:51;12.10;92.60
40816;DHT22;26535;48.788;9.214;2023-05-16T19:31:16;12.00;92.80
40816;DHT22;26535;48.788;9.214;2023-05-16T19:33:42;12.00;92.80
40816;DHT22;26535;48.788;9.214;2023-05-16T19:36:08;11.90;92.90
40816;DHT22;26535;48.788;9.214;2023-05-16T19:38:34;11.90;92.90
40816;DHT22;26535;48.788;9.214;2023-05-16T19:41:00;11.80;92.90
40816;DHT22;26535;48.788;9.214;2023-05-16T19:43:26;11.70;92.90
40816;DHT22;26535;48.788;9.214;2023-05-16T19:45:51;11.60;93.30
40816;DHT22;26535;48.788;9.214;2023-05-16T19:48:17;11.60;93.00
40816;DHT22;26535;48.788;9.214;2023-05-16T19:50:43;11.50;93.10
40816;DHT22;26535;48.788;9.214;2023-05-16T19:53:09;11.50;93.00
40816;DHT22;26535;48.788;9.214;2023-05-16T19:55:36;11.40;93.10
40816;DHT22;26535;48.788;9.214;2023-05-16T19:58:02;11.40;93.20
40816;DHT22;26535;48.788;9.214;2023-05-16T20:00:28;11.40;93.30
40816;DHT22;26535;48.788;9.214;2023-05-16T20:02:54;11.40;92.90
40816;DHT22;26535;48.788;9.214;2023-05-16T20:05:20;11.30;92.90
40816;DHT22;26535;48.788;9.214;2023-05-16T20:07:49;11.20;93.30
40816;DHT22;26535;48.788;9.214;2023-05-16T20:10:15;11.10;93.20
40816;DHT22;26535;48.788;9.214;2023-05-16T20:12:41;11.10;93.20
40816;DHT22;26535;48.788;9.214;2023-05-16T20:15:08;11.00;93.50
40816;DHT22;26535;48.788;9.214;2023-05-16T20:17:35;11.00;93.40
40816;DHT22;26535;48.788;9.214;2023-05-16T20:20:02;11.00;93.60
40816;DHT22;26535;48.788;9.214;2023-05-16T20:22:28;11.00;93.40
40816;DHT22;26535;48.788;9.214;2023-05-16T20:24:53;11.00;93.60
40816;DHT22;26535;48.788;9.214;2023-05-16T20:27:19;11.00;93.50
40816;DHT22;26535;48.788;9.214;2023-05-16T20:29:46;11.00;93.50
40816;DHT22;26535;48.788;9.214;2023-05-16T20:32:21;11.00;93.60
40816;DHT22;26535;48.788;9.214;2023-05-16T20:34:47;11.00;93.80
40816;DHT22;26535;48.788;9.214;2023-05-16T20:37:13;11.00;93.70
40816;DHT22;26535;48.788;9.214;2023-05-16T20:39:39;11.10;93.40